sensor_id;sensor_type;location;lat;lon;timestamp;temperature;humidity
25923;DHT22;13725;51.170;4.442;2023-08-30T00:00:47;13.40;99.90
25923;DHT22;13725;51.170;4.442;2023-08-30T00:03:14;13.40;99.90
25923;DHT22;13725;51.170;4.442;2023-08-30T00:05:40;13.40;99.90
25923;DHT22;13725;51.170;4.442;2023-08-30T00:08:07;13.40;99.90
25923;DHT22;13725;51.170;4.442;2023-08-30T00:10:33;13.40;99.90
25923;DHT22;13725;51.170;4.442;2023-08-30T00:12:58;13.40;99.90
25923;DHT22;13725;51.170;4.442;2023-08-30T00:15:24;13.50;99.90
25923;DHT22;13725;51.170;4.442;2023-08-30T00:17:50;13.50;99.90
25923;DHT22;13725;51.170;4.442;2023-08-30T00:20:20;13.60;99.90
25923;DHT22;13725;51.170;4.442;2023-08-30T00:22:47;13.60;99.90
25923;DHT22;13725;51.170;4.442;2023-08-30T00:25:20;13.50;99.90
25923;DHT22;13725;51.170;4.442;2023-08-30T00:27:46;13.50;99.90
25923;DHT22;13725;51.170;4.442;2023-08-30T00:30:12;13.50;99.90
25923;DHT22;13725;51.170;4.442;2023-08-30T00:32:37;13.60;99.90
25923;DHT22;13725;51.170;4.442;2023-08-30T00:35:03;13.60;99.90
25923;DHT22;13725;51.170;4.442;2023-08-30T00:37:29;13.60;99.90
25923;DHT22;13725;51.170;4.442;2023-08-30T00:39:55;13.60;99.90
25923;DHT22;13725;51.170;4.442;2023-08-30T00:42:21;13.70;99.90
25923;DHT22;13725;51.170;4.442;2023-08-30T00:44:46;13.70;99.90
25923;DHT22;13725;51.170;4.442;2023-08-30T00:47:12;13.70;99.90
25923;DHT22;13725;51.170;4.442;2023-08-30T00:49:38;13.80;99.90
25923;DHT22;13725;51.170;4.442;2023-08-30T00:52:08;13.90;99.90
25923;DHT22;13725;51.170;4.442;2023-08-30T00:54:35;13.90;99.90
25923;DHT22;13725;51.170;4.442;2023-08-30T00:57:02;14.00;99.90
25923;DHT22;13725;51.170;4.442;2023-08-30T00:59:31;14.10;99.90
25923;DHT22;13725;51.170;4.442;2023-08-30T01:01:58;14.10;99.90
25923;DHT22;13725;51.170;4.442;2023-08-30T01:04:25;14.20;99.90
25923;DHT22;13725;51.170;4.442;2023-08-30T01:06:51;14.20;99.90
25923;DHT22;13725;51.170;4.442;2023-08-30T01:09:18;14.30;99.90
25923;DHT22;13725;51.170;4.442;2023-08-30T01:12:22;14.30;99.90
25923;DHT22;13725;51.170;4.442;2023-08-30T01:14:56;14.40;99.90
25923;DHT22;13725;51.170;4.442;2023-08-30T01:17:23;14.40;99.90
25923;DHT22;13725;51.170;4.442;2023-08-30T01:20:01;14.40;99.90
25923;DHT22;13725;51.170;4.442;2023-08-30T01:28:05;14.40;99.90
25923;DHT22;13725;51.170;4.442;2023-08-30T01:30:32;14.40;99.90
25923;DHT22;13725;51.170;4.442;2023-08-30T01:33:02;14.50;99.90
25923;DHT22;13725;51.170;4.442;2023-08-30T01:35:30;14.60;99.90
25923;DHT22;13725;51.170;4.442;2023-08-30T01:38:01;14.70;99.90
25923;DHT22;13725;51.170;4.442;2023-08-30T01:40:29;14.70;99.90
25923;DHT22;13725;51.170;4.442;2023-08-30T01:42:56;14.70;99.90
25923;DHT22;13725;51.170;4.442;2023-08-30T01:45:24;14.70;99.90
25923;DHT22;13725;51.170;4.442;2023-08-30T01:47:50;14.70;99.90
25923;DHT22;13725;51.170;4.442;2023-08-30T01:50:19;14.60;99.90
25923;DHT22;13725;51.170;4.442;2023-08-30T01:52:46;14.60;99.90
25923;DHT22;13725;51.170;4.442;2023-08-30T01:55:14;14.50;99.90
25923;DHT22;13725;51.170;4.442;2023-08-30T01:57:40;14.50;99.90
25923;DHT22;13725;51.170;4.442;2023-08-30T02:00:06;14.50;99.90
25923;DHT22;13725;51.170;4.442;2023-08-30T02:02:41;14.50;99.90
25923;DHT22;13725;51.170;4.442;2023-08-30T02:05:07;14.50;99.90
25923;DHT22;13725;51.170;4.442;2023-08-30T02:07:40;14.50;99.90
25923;DHT22;13725;51.170;4.442;2023-08-30T02:10:08;14.50;99.90
25923;DHT22;13725;51.170;4.442;2023-08-30T02:12:48;14.50;99.90
25923;DHT22;13725;51.170;4.442;2023-08-30T02:15:16;14.40;99.90
25923;DHT22;13725;51.170;4.442;2023-08-30T02:17:43;14.30;99.90
25923;DHT22;13725;51.170;4.442;2023-08-30T02:20:09;14.30;99.90
25923;DHT22;13725;51.170;4.442;2023-08-30T02:22:35;14.30;99.90
25923;DHT22;13725;51.170;4.442;2023-08-30T02:25:02;14.30;99.90
25923;DHT22;13725;51.170;4.442;2023-08-30T02:27:33;14.20;99.90
25923;DHT22;13725;51.170;4.442;2023-08-30T02:30:01;14.20;99.90
25923;DHT22;13725;51.170;4.442;2023-08-30T02:32:28;14.20;99.90
25923;DHT22;13725;51.170;4.442;2023-08-30T02:34:56;14.30;99.90
25923;DHT22;13725;51.170;4.442;2023-08-30T02:37:22;14.40;99.90
25923;DHT22;13725;51.170;4.442;2023-08-30T02:39:50;14.40;99.90
25923;DHT22;13725;51.170;4.442;2023-08-30T02:42:16;14.40;99.90
25923;DHT22;13725;51.170;4.442;2023-08-30T02:44:42;14.50;99.90
25923;DHT22;13725;51.170;4.442;2023-08-30T02:47:07;14.50;99.90
25923;DHT22;13725;51.170;4.442;2023-08-30T02:49:33;14.60;99.90
25923;DHT22;13725;51.170;4.442;2023-08-30T02:51:59;14.60;99.90
25923;DHT22;13725;51.170;4.442;2023-08-30T02:54:25;14.70;99.90
25923;DHT22;13725;51.170;4.442;2023-08-30T02:56:51;14.70;99.90
25923;DHT22;13725;51.170;4.442;2023-08-30T02:59:16;14.80;99.90
25923;DHT22;13725;51.170;4.442;2023-08-30T03:01:44;14.80;99.90
25923;DHT22;13725;51.170;4.442;2023-08-30T03:04:11;14.80;99.90
25923;DHT22;13725;51.170;4.442;2023-08-30T03:06:36;14.70;99.90
25923;DHT22;13725;51.170;4.442;2023-08-30T03:09:03;14.70;99.90
25923;DHT22;13725;51.170;4.442;2023-08-30T03:11:33;14.70;99.90
25923;DHT22;13725;51.170;4.442;2023-08-30T03:13:58;14.70;99.90
25923;DHT22;13725;51.170;4.442;2023-08-30T03:16:24;14.70;99.90
25923;DHT22;13725;51.170;4.442;2023-08-30T03:18:51;14.60;99.90
25923;DHT22;13725;51.170;4.442;2023-08-30T03:21:17;14.60;99.90
25923;DHT22;13725;51.170;4.442;2023-08-30T03:23:43;14.70;99.90
25923;DHT22;13725;51.170;4.442;2023-08-30T03:26:16;14.70;99.90
25923;DHT22;13725;51.170;4.442;2023-08-30T03:28:43;14.70;99.90
25923;DHT22;13725;51.170;4.442;2023-08-30T03:31:18;14.70;99.90
25923;DHT22;13725;51.170;4.442;2023-08-30T03:33:46;14.70;99.90
25923;DHT22;13725;51.170;4.442;2023-08-30T03:36:15;14.70;99.90
25923;DHT22;13725;51.170;4.442;2023-08-30T03:38:42;14.80;99.90
25923;DHT22;13725;51.170;4.442;2023-08-30T03:41:09;14.70;99.90
25923;DHT22;13725;51.170;4.442;2023-08-30T03:43:35;14.70;99.90
25923;DHT22;13725;51.170;4.442;2023-08-30T03:46:02;14.60;99.90
25923;DHT22;13725;51.170;4.442;2023-08-30T03:48:31;14.60;99.90
25923;DHT22;13725;51.170;4.442;2023-08-30T03:50:57;14.70;99.90
25923;DHT22;13725;51.170;4.442;2023-08-30T03:53:24;14.70;99.90
25923;DHT22;13725;51.170;4.442;2023-08-30T03:55:50;14.70;99.90
25923;DHT22;13725;51.170;4.442;2023-08-30T03:58:18;14.80;99.90
25923;DHT22;13725;51.170;4.442;2023-08-30T04:00:44;14.80;99.90
25923;DHT22;13725;51.170;4.442;2023-08-30T04:03:10;14.90;99.90
25923;DHT22;13725;51.170;4.442;2023-08-30T04:05:36;14.80;99.90
25923;DHT22;13725;51.170;4.442;2023-08-30T04:08:03;14.80;99.90
25923;DHT22;13725;51.170;4.442;2023-08-30T04:10:29;14.70;99.90
25923;DHT22;13725;51.170;4.442;2023-08-30T04:12:55;14.80;99.90
25923;DHT22;13725;51.170;4.442;2023-08-30T04:15:20;14.70;99.90
25923;DHT22;13725;51.170;4.442;2023-08-30T04:17:46;14.90;99.90
25923;DHT22;13725;51.170;4.442;2023-08-30T04:20:12;14.80;99.90
25923;DHT22;13725;51.170;4.442;2023-08-30T04:22:38;14.90;99.90
25923;DHT22;13725;51.170;4.442;2023-08-30T04:25:04;14.80;99.90
25923;DHT22;13725;51.170;4.442;2023-08-30T04:27:30;14.90;99.90
25923;DHT22;13725;51.170;4.442;2023-08-30T04:29:56;14.90;99.90
25923;DHT22;13725;51.170;4.442;2023-08-30T04:32:22;14.90;99.90
25923;DHT22;13725;51.170;4.442;2023-08-30T04:34:48;14.90;99.90
25923;DHT22;13725;51.170;4.442;2023-08-30T04:37:13;14.90;99.90
25923;DHT22;13725;51.170;4.442;2023-08-30T04:39:40;15.00;99.90
25923;DHT22;13725;51.170;4.442;2023-08-30T04:42:06;15.00;99.90
25923;DHT22;13725;51.170;4.442;2023-08-30T04:44:32;15.00;99.90
25923;DHT22;13725;51.170;4.442;2023-08-30T04:46:58;15.00;99.90
25923;DHT22;13725;51.170;4.442;2023-08-30T04:49:24;15.10;99.90
25923;DHT22;13725;51.170;4.442;2023-08-30T04:51:52;15.10;99.90
25923;DHT22;13725;51.170;4.442;2023-08-30T04:54:18;15.20;99.90
25923;DHT22;13725;51.170;4.442;2023-08-30T04:56:44;15.10;99.90
25923;DHT22;13725;51.170;4.442;2023-08-30T04:59:10;15.10;99.90
25923;DHT22;13725;51.170;4.442;2023-08-30T05:01:40;15.00;99.90
25923;DHT22;13725;51.170;4.442;2023-08-30T05:04:11;14.90;99.90
25923;DHT22;13725;51.170;4.442;2023-08-30T05:06:36;14.80;99.90
25923;DHT22;13725;51.170;4.442;2023-08-30T05:09:02;14.80;99.90
25923;DHT22;13725;51.170;4.442;2023-08-30T05:11:28;14.70;99.90
25923;DHT22;13725;51.170;4.442;2023-08-30T05:13:55;14.50;99.90
25923;DHT22;13725;51.170;4.442;2023-08-30T05:16:21;14.40;99.90
25923;DHT22;13725;51.170;4.442;2023-08-30T05:18:47;14.40;99.90
25923;DHT22;13725;51.170;4.442;2023-08-30T05:21:14;14.40;99.90
25923;DHT22;13725;51.170;4.442;2023-08-30T05:23:40;14.30;99.90
25923;DHT22;13725;51.170;4.442;2023-08-30T05:26:10;14.30;99.90
25923;DHT22;13725;51.170;4.442;2023-08-30T05:28:38;14.20;99.90
25923;DHT22;13725;51.170;4.442;2023-08-30T05:31:06;14.10;99.90
25923;DHT22;13725;51.170;4.442;2023-08-30T05:33:58;14.00;99.90
25923;DHT22;13725;51.170;4.442;2023-08-30T05:36:42;14.00;99.90
25923;DHT22;13725;51.170;4.442;2023-08-30T05:39:32;14.00;99.90
25923;DHT22;13725;51.170;4.442;2023-08-30T05:41:58;14.00;99.90
25923;DHT22;13725;51.170;4.442;2023-08-30T05:44:23;13.90;99.90
25923;DHT22;13725;51.170;4.442;2023-08-30T05:46:49;13.90;99.90
25923;DHT22;13725;51.170;4.442;2023-08-30T05:49:15;13.90;99.90
25923;DHT22;13725;51.170;4.442;2023-08-30T05:51:41;13.90;99.90
25923;DHT22;13725;51.170;4.442;2023-08-30T05:54:07;13.90;99.90
25923;DHT22;13725;51.170;4.442;2023-08-30T05:56:33;14.00;99.90
25923;DHT22;13725;51.170;4.442;2023-08-30T05:58:59;14.00;99.90
25923;DHT22;13725;51.170;4.442;2023-08-30T06:01:25;14.00;99.90
25923;DHT22;13725;51.170;4.442;2023-08-30T06:03:51;14.00;99.90
25923;DHT22;13725;51.170;4.442;2023-08-30T06:06:17;14.00;99.90
25923;DHT22;13725;51.170;4.442;2023-08-30T06:08:42;14.10;99.90
25923;DHT22;13725;51.170;4.442;2023-08-30T06:11:08;14.10;99.90
25923;DHT22;13725;51.170;4.442;2023-08-30T06:13:34;14.10;99.90
25923;DHT22;13725;51.170;4.442;2023-08-30T06:16:00;14.20;99.90
25923;DHT22;13725;51.170;4.442;2023-08-30T06:18:31;14.20;99.90
25923;DHT22;13725;51.170;4.442;2023-08-30T06:21:00;14.20;99.90
25923;DHT22;13725;51.170;4.442;2023-08-30T06:23:26;14.30;99.90
25923;DHT22;13725;51.170;4.442;2023-08-30T06:25:57;14.30;99.90
25923;DHT22;13725;51.170;4.442;2023-08-30T06:28:24;14.30;99.90
25923;DHT22;13725;51.170;4.442;2023-08-30T06:30:49;14.30;99.90
25923;DHT22;13725;51.170;4.442;2023-08-30T06:33:16;14.30;99.90
25923;DHT22;13725;51.170;4.442;2023-08-30T06:35:43;14.30;99.90
25923;DHT22;13725;51.170;4.442;2023-08-30T06:38:08;14.30;99.90
25923;DHT22;13725;51.170;4.442;2023-08-30T06:40:36;14.40;99.90
25923;DHT22;13725;51.170;4.442;2023-08-30T06:43:01;14.40;99.90
25923;DHT22;13725;51.170;4.442;2023-08-30T06:45:28;14.40;99.90
25923;DHT22;13725;51.170;4.442;2023-08-30T06:47:53;14.40;99.90
25923;DHT22;13725;51.170;4.442;2023-08-30T06:50:19;14.40;99.90
25923;DHT22;13725;51.170;4.442;2023-08-30T06:52:45;14.40;99.90
25923;DHT22;13725;51.170;4.442;2023-08-30T06:55:11;14.40;99.90
25923;DHT22;13725;51.170;4.442;2023-08-30T06:57:36;14.40;99.90
25923;DHT22;13725;51.170;4.442;2023-08-30T07:00:02;14.40;99.90
25923;DHT22;13725;51.170;4.442;2023-08-30T07:02:37;14.40;99.90
25923;DHT22;13725;51.170;4.442;2023-08-30T07:05:03;14.40;99.90
25923;DHT22;13725;51.170;4.442;2023-08-30T07:07:30;14.50;99.90
25923;DHT22;13725;51.170;4.442;2023-08-30T07:09:57;14.40;99.90
25923;DHT22;13725;51.170;4.442;2023-08-30T07:12:22;14.60;99.90
25923;DHT22;13725;51.170;4.442;2023-08-30T07:14:48;14.70;99.90
25923;DHT22;13725;51.170;4.442;2023-08-30T07:17:14;14.70;99.90
25923;DHT22;13725;51.170;4.442;2023-08-30T07:19:40;14.70;99.90
25923;DHT22;13725;51.170;4.442;2023-08-30T07:22:06;14.80;99.90
25923;DHT22;13725;51.170;4.442;2023-08-30T07:24:31;14.80;99.90
25923;DHT22;13725;51.170;4.442;2023-08-30T07:26:57;14.80;99.90
25923;DHT22;13725;51.170;4.442;2023-08-30T07:29:24;14.90;99.90
25923;DHT22;13725;51.170;4.442;2023-08-30T07:31:50;14.90;99.90
25923;DHT22;13725;51.170;4.442;2023-08-30T07:34:19;14.90;99.90
25923;DHT22;13725;51.170;4.442;2023-08-30T07:36:44;15.00;99.90
25923;DHT22;13725;51.170;4.442;2023-08-30T07:39:10;15.00;99.90
25923;DHT22;13725;51.170;4.442;2023-08-30T07:41:36;15.00;99.90
25923;DHT22;13725;51.170;4.442;2023-08-30T07:44:03;15.00;99.90
25923;DHT22;13725;51.170;4.442;2023-08-30T07:46:29;15.00;99.90
25923;DHT22;13725;51.170;4.442;2023-08-30T07:48:54;15.10;99.90
25923;DHT22;13725;51.170;4.442;2023-08-30T07:51:21;15.10;99.90
25923;DHT22;13725;51.170;4.442;2023-08-30T07:53:47;15.10;99.90
25923;DHT22;13725;51.170;4.442;2023-08-30T07:56:13;15.20;99.90
25923;DHT22;13725;51.170;4.442;2023-08-30T07:58:40;15.30;99.90
25923;DHT22;13725;51.170;4.442;2023-08-30T08:01:08;15.30;99.90
25923;DHT22;13725;51.170;4.442;2023-08-30T08:03:33;15.50;99.90
25923;DHT22;13725;51.170;4.442;2023-08-30T08:06:00;15.60;99.90
25923;DHT22;13725;51.170;4.442;2023-08-30T08:08:26;15.70;99.90
25923;DHT22;13725;51.170;4.442;2023-08-30T08:10:52;15.80;99.90
25923;DHT22;13725;51.170;4.442;2023-08-30T08:13:18;15.90;99.90
25923;DHT22;13725;51.170;4.442;2023-08-30T08:15:44;16.00;99.90
25923;DHT22;13725;51.170;4.442;2023-08-30T08:18:09;16.60;99.90
25923;DHT22;13725;51.170;4.442;2023-08-30T08:20:35;17.10;99.90
25923;DHT22;13725;51.170;4.442;2023-08-30T08:23:03;17.30;99.90
25923;DHT22;13725;51.170;4.442;2023-08-30T08:25:29;17.40;99.90
25923;DHT22;13725;51.170;4.442;2023-08-30T08:27:55;17.40;99.90
25923;DHT22;13725;51.170;4.442;2023-08-30T08:30:20;17.40;99.90
25923;DHT22;13725;51.170;4.442;2023-08-30T08:32:47;17.60;99.90
25923;DHT22;13725;51.170;4.442;2023-08-30T08:35:15;17.50;99.90
25923;DHT22;13725;51.170;4.442;2023-08-30T08:37:41;17.60;99.90
25923;DHT22;13725;51.170;4.442;2023-08-30T08:40:09;17.50;99.90
25923;DHT22;13725;51.170;4.442;2023-08-30T08:42:36;17.80;99.90
25923;DHT22;13725;51.170;4.442;2023-08-30T08:45:03;18.40;99.90
25923;DHT22;13725;51.170;4.442;2023-08-30T08:47:31;19.50;99.90
25923;DHT22;13725;51.170;4.442;2023-08-30T08:49:57;20.90;99.90
25923;DHT22;13725;51.170;4.442;2023-08-30T08:52:24;22.10;99.90
25923;DHT22;13725;51.170;4.442;2023-08-30T08:54:50;22.40;99.90
25923;DHT22;13725;51.170;4.442;2023-08-30T08:57:17;21.90;99.90
25923;DHT22;13725;51.170;4.442;2023-08-30T08:59:44;21.90;99.90
25923;DHT22;13725;51.170;4.442;2023-08-30T09:02:12;22.30;99.90
25923;DHT22;13725;51.170;4.442;2023-08-30T09:04:39;23.30;99.90
25923;DHT22;13725;51.170;4.442;2023-08-30T09:07:05;23.60;99.90
25923;DHT22;13725;51.170;4.442;2023-08-30T09:09:33;24.60;99.90
25923;DHT22;13725;51.170;4.442;2023-08-30T09:12:00;26.30;99.90
25923;DHT22;13725;51.170;4.442;2023-08-30T09:14:26;26.50;99.90
25923;DHT22;13725;51.170;4.442;2023-08-30T09:16:56;27.70;99.90
25923;DHT22;13725;51.170;4.442;2023-08-30T09:19:22;28.90;99.90
25923;DHT22;13725;51.170;4.442;2023-08-30T09:21:56;29.70;99.90
25923;DHT22;13725;51.170;4.442;2023-08-30T09:24:22;30.60;99.90
25923;DHT22;13725;51.170;4.442;2023-08-30T09:26:49;31.40;99.90
25923;DHT22;13725;51.170;4.442;2023-08-30T09:29:17;31.20;99.90
25923;DHT22;13725;51.170;4.442;2023-08-30T09:31:43;30.50;99.90
25923;DHT22;13725;51.170;4.442;2023-08-30T09:34:09;30.30;99.90
25923;DHT22;13725;51.170;4.442;2023-08-30T09:36:41;31.40;99.90
25923;DHT22;13725;51.170;4.442;2023-08-30T09:39:14;32.60;99.90
25923;DHT22;13725;51.170;4.442;2023-08-30T09:41:44;32.70;99.90
25923;DHT22;13725;51.170;4.442;2023-08-30T09:44:17;32.10;99.90
25923;DHT22;13725;51.170;4.442;2023-08-30T09:46:44;31.60;99.90
25923;DHT22;13725;51.170;4.442;2023-08-30T09:49:10;30.80;99.90
25923;DHT22;13725;51.170;4.442;2023-08-30T09:51:41;30.50;99.90
25923;DHT22;13725;51.170;4.442;2023-08-30T09:54:34;31.30;99.90
25923;DHT22;13725;51.170;4.442;2023-08-30T09:57:01;33.10;99.90
25923;DHT22;13725;51.170;4.442;2023-08-30T09:59:27;34.40;99.90
25923;DHT22;13725;51.170;4.442;2023-08-30T10:01:54;34.90;98.40
25923;DHT22;13725;51.170;4.442;2023-08-30T10:04:21;33.70;98.30
25923;DHT22;13725;51.170;4.442;2023-08-30T10:06:49;32.10;99.80
25923;DHT22;13725;51.170;4.442;2023-08-30T10:09:15;30.20;99.90
25923;DHT22;13725;51.170;4.442;2023-08-30T10:11:45;28.50;99.90
25923;DHT22;13725;51.170;4.442;2023-08-30T10:14:12;26.90;99.90
25923;DHT22;13725;51.170;4.442;2023-08-30T10:16:46;25.80;99.90
25923;DHT22;13725;51.170;4.442;2023-08-30T10:19:16;24.80;99.90
25923;DHT22;13725;51.170;4.442;2023-08-30T10:21:47;24.30;99.90
25923;DHT22;13725;51.170;4.442;2023-08-30T10:24:16;25.50;99.90
25923;DHT22;13725;51.170;4.442;2023-08-30T10:26:44;26.90;99.90
25923;DHT22;13725;51.170;4.442;2023-08-30T10:29:12;28.90;99.90
25923;DHT22;13725;51.170;4.442;2023-08-30T10:31:40;30.20;99.90
25923;DHT22;13725;51.170;4.442;2023-08-30T10:34:17;30.00;99.90
25923;DHT22;13725;51.170;4.442;2023-08-30T10:36:43;28.80;99.90
25923;DHT22;13725;51.170;4.442;2023-08-30T10:39:14;28.00;99.90
25923;DHT22;13725;51.170;4.442;2023-08-30T10:41:56;27.40;99.90
25923;DHT22;13725;51.170;4.442;2023-08-30T10:44:22;26.50;99.90
25923;DHT22;13725;51.170;4.442;2023-08-30T10:46:52;25.40;99.90
25923;DHT22;13725;51.170;4.442;2023-08-30T10:49:19;24.40;99.90
25923;DHT22;13725;51.170;4.442;2023-08-30T10:51:53;23.50;99.90
25923;DHT22;13725;51.170;4.442;2023-08-30T10:54:19;23.40;99.90
25923;DHT22;13725;51.170;4.442;2023-08-30T10:56:54;24.70;99.90
25923;DHT22;13725;51.170;4.442;2023-08-30T10:59:23;25.60;99.90
25923;DHT22;13725;51.170;4.442;2023-08-30T11:01:50;25.40;99.90
25923;DHT22;13725;51.170;4.442;2023-08-30T11:04:19;25.20;99.90
25923;DHT22;13725;51.170;4.442;2023-08-30T11:06:48;24.90;99.90
25923;DHT22;13725;51.170;4.442;2023-08-30T11:09:16;24.50;99.90
25923;DHT22;13725;51.170;4.442;2023-08-30T11:11:48;24.20;99.90
25923;DHT22;13725;51.170;4.442;2023-08-30T11:14:15;23.70;99.90
25923;DHT22;13725;51.170;4.442;2023-08-30T11:16:41;23.20;99.90
25923;DHT22;13725;51.170;4.442;2023-08-30T11:19:08;23.00;99.90
25923;DHT22;13725;51.170;4.442;2023-08-30T11:21:40;22.90;99.90
25923;DHT22;13725;51.170;4.442;2023-08-30T11:24:07;23.00;99.90
25923;DHT22;13725;51.170;4.442;2023-08-30T11:26:34;23.10;99.90
25923;DHT22;13725;51.170;4.442;2023-08-30T11:29:09;24.10;99.90
25923;DHT22;13725;51.170;4.442;2023-08-30T11:31:35;26.30;99.90
25923;DHT22;13725;51.170;4.442;2023-08-30T11:34:01;28.60;99.90
25923;DHT22;13725;51.170;4.442;2023-08-30T11:36:29;30.00;99.90
25923;DHT22;13725;51.170;4.442;2023-08-30T11:38:56;31.20;99.90
25923;DHT22;13725;51.170;4.442;2023-08-30T11:41:26;32.10;95.20
25923;DHT22;13725;51.170;4.442;2023-08-30T11:43:53;33.70;94.60
25923;DHT22;13725;51.170;4.442;2023-08-30T11:46:20;34.90;88.90
25923;DHT22;13725;51.170;4.442;2023-08-30T11:48:47;35.10;80.30
25923;DHT22;13725;51.170;4.442;2023-08-30T11:51:14;36.30;78.80
25923;DHT22;13725;51.170;4.442;2023-08-30T11:53:40;37.10;76.90
25923;DHT22;13725;51.170;4.442;2023-08-30T11:56:07;36.90;73.20
25923;DHT22;13725;51.170;4.442;2023-08-30T11:58:36;36.30;72.00
25923;DHT22;13725;51.170;4.442;2023-08-30T12:01:03;36.50;71.00
25923;DHT22;13725;51.170;4.442;2023-08-30T12:03:31;35.80;69.10
25923;DHT22;13725;51.170;4.442;2023-08-30T12:05:57;34.50;72.80
25923;DHT22;13725;51.170;4.442;2023-08-30T12:08:25;33.70;74.20
25923;DHT22;13725;51.170;4.442;2023-08-30T12:10:51;31.70;76.70
25923;DHT22;13725;51.170;4.442;2023-08-30T12:13:28;30.60;79.40
25923;DHT22;13725;51.170;4.442;2023-08-30T12:15:55;29.80;85.90
25923;DHT22;13725;51.170;4.442;2023-08-30T12:18:25;29.50;86.50
25923;DHT22;13725;51.170;4.442;2023-08-30T12:21:00;30.50;86.10
25923;DHT22;13725;51.170;4.442;2023-08-30T12:23:27;31.60;82.00
25923;DHT22;13725;51.170;4.442;2023-08-30T12:26:00;31.80;81.30
25923;DHT22;13725;51.170;4.442;2023-08-30T12:28:27;32.20;82.50
25923;DHT22;13725;51.170;4.442;2023-08-30T12:30:54;33.50;75.60
25923;DHT22;13725;51.170;4.442;2023-08-30T12:33:20;34.40;74.70
25923;DHT22;13725;51.170;4.442;2023-08-30T12:35:45;34.70;74.00
25923;DHT22;13725;51.170;4.442;2023-08-30T12:38:11;33.40;73.00
25923;DHT22;13725;51.170;4.442;2023-08-30T12:40:38;32.20;77.00
25923;DHT22;13725;51.170;4.442;2023-08-30T12:43:04;32.10;78.50
25923;DHT22;13725;51.170;4.442;2023-08-30T12:45:30;32.90;78.20
25923;DHT22;13725;51.170;4.442;2023-08-30T12:47:56;34.00;77.40
25923;DHT22;13725;51.170;4.442;2023-08-30T12:50:24;35.00;73.80
25923;DHT22;13725;51.170;4.442;2023-08-30T12:52:50;35.50;74.70
25923;DHT22;13725;51.170;4.442;2023-08-30T12:55:16;34.20;73.10
25923;DHT22;13725;51.170;4.442;2023-08-30T12:57:43;32.10;75.30
25923;DHT22;13725;51.170;4.442;2023-08-30T13:00:12;30.70;80.60
25923;DHT22;13725;51.170;4.442;2023-08-30T13:02:39;29.50;81.20
25923;DHT22;13725;51.170;4.442;2023-08-30T13:05:05;29.00;86.50
25923;DHT22;13725;51.170;4.442;2023-08-30T13:07:31;29.90;82.30
25923;DHT22;13725;51.170;4.442;2023-08-30T13:09:57;31.40;80.90
25923;DHT22;13725;51.170;4.442;2023-08-30T13:12:22;31.40;78.00
25923;DHT22;13725;51.170;4.442;2023-08-30T13:14:48;30.50;81.90
25923;DHT22;13725;51.170;4.442;2023-08-30T13:17:14;29.20;85.70
25923;DHT22;13725;51.170;4.442;2023-08-30T13:19:45;28.20;88.90
25923;DHT22;13725;51.170;4.442;2023-08-30T13:22:11;28.10;89.40
25923;DHT22;13725;51.170;4.442;2023-08-30T13:24:37;27.70;90.70
25923;DHT22;13725;51.170;4.442;2023-08-30T13:27:03;26.90;92.20
25923;DHT22;13725;51.170;4.442;2023-08-30T13:29:29;26.30;93.60
25923;DHT22;13725;51.170;4.442;2023-08-30T13:31:55;26.40;94.40
25923;DHT22;13725;51.170;4.442;2023-08-30T13:34:22;26.40;95.20
25923;DHT22;13725;51.170;4.442;2023-08-30T13:36:47;27.10;96.00
25923;DHT22;13725;51.170;4.442;2023-08-30T13:39:13;28.50;93.40
25923;DHT22;13725;51.170;4.442;2023-08-30T13:41:40;28.50;90.60
25923;DHT22;13725;51.170;4.442;2023-08-30T13:44:06;28.10;91.70
25923;DHT22;13725;51.170;4.442;2023-08-30T13:46:32;28.40;92.90
25923;DHT22;13725;51.170;4.442;2023-08-30T13:48:58;28.10;91.60
25923;DHT22;13725;51.170;4.442;2023-08-30T13:51:25;27.50;93.00
25923;DHT22;13725;51.170;4.442;2023-08-30T13:53:52;28.00;93.70
25923;DHT22;13725;51.170;4.442;2023-08-30T13:56:19;29.10;91.70
25923;DHT22;13725;51.170;4.442;2023-08-30T13:58:46;29.80;89.00
25923;DHT22;13725;51.170;4.442;2023-08-30T14:01:12;29.40;88.10
25923;DHT22;13725;51.170;4.442;2023-08-30T14:03:38;28.50;88.30
25923;DHT22;13725;51.170;4.442;2023-08-30T14:06:04;28.40;88.70
25923;DHT22;13725;51.170;4.442;2023-08-30T14:08:30;28.60;88.20
25923;DHT22;13725;51.170;4.442;2023-08-30T14:10:56;28.40;86.30
25923;DHT22;13725;51.170;4.442;2023-08-30T14:13:22;27.70;87.30
25923;DHT22;13725;51.170;4.442;2023-08-30T14:15:48;27.00;90.30
25923;DHT22;13725;51.170;4.442;2023-08-30T14:18:15;26.30;91.90
25923;DHT22;13725;51.170;4.442;2023-08-30T14:20:41;25.90;93.40
25923;DHT22;13725;51.170;4.442;2023-08-30T14:23:07;25.40;93.70
25923;DHT22;13725;51.170;4.442;2023-08-30T14:25:33;24.50;97.10
25923;DHT22;13725;51.170;4.442;2023-08-30T14:28:00;23.70;97.50
25923;DHT22;13725;51.170;4.442;2023-08-30T14:30:27;23.10;99.60
25923;DHT22;13725;51.170;4.442;2023-08-30T14:32:52;22.80;99.90
25923;DHT22;13725;51.170;4.442;2023-08-30T14:35:19;22.80;99.90
25923;DHT22;13725;51.170;4.442;2023-08-30T14:37:50;22.90;99.90
25923;DHT22;13725;51.170;4.442;2023-08-30T14:40:16;22.80;99.90
25923;DHT22;13725;51.170;4.442;2023-08-30T14:42:42;22.60;99.90
25923;DHT22;13725;51.170;4.442;2023-08-30T14:45:08;22.50;99.90
25923;DHT22;13725;51.170;4.442;2023-08-30T14:47:34;22.30;99.90
25923;DHT22;13725;51.170;4.442;2023-08-30T14:50:01;22.40;99.90
25923;DHT22;13725;51.170;4.442;2023-08-30T14:52:29;22.50;99.90
25923;DHT22;13725;51.170;4.442;2023-08-30T14:54:55;22.50;99.90
25923;DHT22;13725;51.170;4.442;2023-08-30T14:57:22;22.30;99.90
25923;DHT22;13725;51.170;4.442;2023-08-30T14:59:48;22.20;99.90
25923;DHT22;13725;51.170;4.442;2023-08-30T15:02:14;22.00;99.90
25923;DHT22;13725;51.170;4.442;2023-08-30T15:04:40;21.90;99.90
25923;DHT22;13725;51.170;4.442;2023-08-30T15:07:06;21.80;99.90
25923;DHT22;13725;51.170;4.442;2023-08-30T15:09:32;21.80;99.90
25923;DHT22;13725;51.170;4.442;2023-08-30T15:11:58;21.80;99.90
25923;DHT22;13725;51.170;4.442;2023-08-30T15:14:24;21.70;99.90
25923;DHT22;13725;51.170;4.442;2023-08-30T15:16:50;21.70;99.90
25923;DHT22;13725;51.170;4.442;2023-08-30T15:19:16;21.90;99.90
25923;DHT22;13725;51.170;4.442;2023-08-30T15:21:42;21.90;99.90
25923;DHT22;13725;51.170;4.442;2023-08-30T15:24:08;22.00;99.90
25923;DHT22;13725;51.170;4.442;2023-08-30T15:26:34;22.20;99.90
25923;DHT22;13725;51.170;4.442;2023-08-30T15:29:00;22.40;99.90
25923;DHT22;13725;51.170;4.442;2023-08-30T15:31:26;22.40;99.90
25923;DHT22;13725;51.170;4.442;2023-08-30T15:33:52;22.40;99.90
25923;DHT22;13725;51.170;4.442;2023-08-30T15:36:17;22.20;99.90